Airfield :







YOU CAN JOIN US ON...

 
LOGIN :

Register | Disclaimer

   EN    FR    IT 

 









Legend :    VFR   Marginal VFR   IFR   Intensive IFR   Very Intensive IFR
Visi :
Ceiling :
>= 8 km
>= 3000ft
5 to 8 km
1000 to 3000 ft
1500m to 5 km
500 to 1000 ft
800 to 1500m
200 to 500 ft
< 800m
< 200 ft
Symbols :   Thunderstorms  Fog  Heavy snow  Heavy precipitations  Wind > 20 kt






- Airport Elevation : 1166 ft


KMPV - Edward F Knapp State

CURRENT METAR :
  • 010451Z AUTO 11006KT 4SM -RA BR OVC016 12/12 A2946 RMK AO2 LTG DSNT SW RAE29B46 SLP981 P0002 T01170117 401281044

EXPIRED METARs :
  • 010434Z AUTO 00000KT 4SM BR BKN014 OVC020 11/11 A2946 RMK AO2 RAE29 P0002 T01110111
  • 010425Z AUTO 00000KT 2SM -RA BR OVC014 11/11 A2947 RMK AO2 VIS 1V4 P0002 T01110111
  • 010351Z AUTO 00000KT 7SM -RA SCT017 BKN026 OVC040 11/11 A2947 RMK AO2 RAE11B32 SLP987 P0001 T01060106
  • 010337Z AUTO 00000KT 8SM -RA SCT015 BKN033 OVC040 11/11 A2947 RMK AO2 RAE11B32 P0001 T01060106
  • 010328Z AUTO 00000KT 10SM BKN015 OVC040 11/11 A2948 RMK AO2 RAE11 P0000 T01060106
  • 010251Z AUTO 00000KT 4SM -RA BR FEW018 BKN055 OVC065 11/11 A2947 RMK AO2 RAE02B50 SLP987 P0001 60053 T01060106 58011

TAF KMPV
Valid from the 01 at 01:00 until the 02 at 00:00 UTC


010102Z 0101/0124 17010KT P6SM VCSH SCT018 BKN035 WS020/15060KT
TEMPO 0101/0104 3SM -SHRA BR BKN018
FM010400 17008KT P6SM VCSH BKN025 WS020/18045KT
FM011000 18005KT P6SM BKN050
FM011600 17010G19KT P6SM VCSH SCT030 BKN050
KZBW FIR / North America



MET'MAP, your aeronautical weather chart ! - Copyright ORBIFLY December 2007 - Disclaimer

ORBIFLY MET'MAP TEAM :

Programming & Development : Alexandra Zaïnal
Concept & original design : Baudouin d'Aumeries
Assistance for programming : Marc-Olivier Méhu
Technical & hardware support : Manuel Goepfert

Contact : metmap@orbifly.com




SOURCES & CREDITS :

   NOAA